sensor_id;sensor_type;location;lat;lon;timestamp;pressure;altitude;pressure_sealevel;temperature;humidity
48204;BME280;33994;50.998;5.864;2023-04-27T00:00:38;101461.34;;;7.09;63.85
48204;BME280;33994;50.998;5.864;2023-04-27T00:03:41;101467.38;;;7.08;63.85
48204;BME280;33994;50.998;5.864;2023-04-27T00:06:44;101465.63;;;7.02;64.18
48204;BME280;33994;50.998;5.864;2023-04-27T00:09:47;101464.72;;;7.00;64.14
48204;BME280;33994;50.998;5.864;2023-04-27T00:12:52;101456.91;;;6.99;64.40
48204;BME280;33994;50.998;5.864;2023-04-27T00:15:55;101452.53;;;6.96;64.50
48204;BME280;33994;50.998;5.864;2023-04-27T00:18:58;101455.13;;;6.95;64.40
48204;BME280;33994;50.998;5.864;2023-04-27T00:22:04;101455.09;;;6.90;64.93
48204;BME280;33994;50.998;5.864;2023-04-27T00:25:08;101469.84;;;6.91;64.50
48204;BME280;33994;50.998;5.864;2023-04-27T00:28:12;101468.91;;;6.86;64.82
48204;BME280;33994;50.998;5.864;2023-04-27T00:31:15;101470.63;;;6.82;64.99
48204;BME280;33994;50.998;5.864;2023-04-27T00:34:18;101468.84;;;6.80;64.93
48204;BME280;33994;50.998;5.864;2023-04-27T00:37:22;101470.53;;;6.75;65.09
48204;BME280;33994;50.998;5.864;2023-04-27T00:40:25;101471.34;;;6.71;65.43
48204;BME280;33994;50.998;5.864;2023-04-27T00:43:30;101474.66;;;6.59;65.67
48204;BME280;33994;50.998;5.864;2023-04-27T00:46:34;101458.97;;;6.51;66.01
48204;BME280;33994;50.998;5.864;2023-04-27T00:49:38;101461.53;;;6.45;66.30
48204;BME280;33994;50.998;5.864;2023-04-27T00:52:42;101460.56;;;6.40;66.27
48204;BME280;33994;50.998;5.864;2023-04-27T00:55:46;101462.34;;;6.41;66.42
48204;BME280;33994;50.998;5.864;2023-04-27T00:58:50;101464.03;;;6.39;66.92
48204;BME280;33994;50.998;5.864;2023-04-27T01:01:53;101454.44;;;6.33;66.84
48204;BME280;33994;50.998;5.864;2023-04-27T01:04:57;101454.41;;;6.29;67.42
48204;BME280;33994;50.998;5.864;2023-04-27T01:08:00;101464.75;;;6.26;67.21
48204;BME280;33994;50.998;5.864;2023-04-27T01:11:03;101465.56;;;6.22;67.54
48204;BME280;33994;50.998;5.864;2023-04-27T01:14:08;101461.09;;;6.13;67.97
48204;BME280;33994;50.998;5.864;2023-04-27T01:17:11;101464.59;;;6.14;68.19
48204;BME280;33994;50.998;5.864;2023-04-27T01:20:14;101477.56;;;6.14;68.28
48204;BME280;33994;50.998;5.864;2023-04-27T01:23:18;101484.41;;;6.08;68.50
48204;BME280;33994;50.998;5.864;2023-04-27T01:26:21;101489.56;;;6.05;68.62
48204;BME280;33994;50.998;5.864;2023-04-27T01:29:24;101485.25;;;6.06;68.39
48204;BME280;33994;50.998;5.864;2023-04-27T01:32:27;101482.63;;;6.03;68.93
48204;BME280;33994;50.998;5.864;2023-04-27T01:35:30;101480.78;;;5.96;69.13
48204;BME280;33994;50.998;5.864;2023-04-27T01:38:35;101468.50;;;5.84;69.48
48204;BME280;33994;50.998;5.864;2023-04-27T01:41:38;101470.91;;;5.73;69.78
48204;BME280;33994;50.998;5.864;2023-04-27T01:44:41;101465.63;;;5.66;70.13
48204;BME280;33994;50.998;5.864;2023-04-27T01:47:44;101472.41;;;5.59;70.49
48204;BME280;33994;50.998;5.864;2023-04-27T01:50:48;101475.00;;;5.57;70.77
48204;BME280;33994;50.998;5.864;2023-04-27T01:53:52;101464.56;;;5.53;70.77
48204;BME280;33994;50.998;5.864;2023-04-27T01:56:55;101466.13;;;5.43;71.21
48204;BME280;33994;50.998;5.864;2023-04-27T01:59:58;101467.78;;;5.38;71.29
48204;BME280;33994;50.998;5.864;2023-04-27T02:03:02;101476.38;;;5.37;71.70
48204;BME280;33994;50.998;5.864;2023-04-27T02:06:05;101467.66;;;5.32;71.73
48204;BME280;33994;50.998;5.864;2023-04-27T02:09:10;101473.66;;;5.29;71.75
48204;BME280;33994;50.998;5.864;2023-04-27T02:12:13;101469.38;;;5.30;72.07
48204;BME280;33994;50.998;5.864;2023-04-27T02:15:16;101482.28;;;5.28;71.95
48204;BME280;33994;50.998;5.864;2023-04-27T02:18:19;101476.25;;;5.28;71.84
48204;BME280;33994;50.998;5.864;2023-04-27T02:21:22;101470.19;;;5.27;72.05
48204;BME280;33994;50.998;5.864;2023-04-27T02:24:27;101464.88;;;5.21;72.17
48204;BME280;33994;50.998;5.864;2023-04-27T02:27:30;101458.75;;;5.15;72.28
48204;BME280;33994;50.998;5.864;2023-04-27T02:30:33;101457.00;;;5.15;72.40
48204;BME280;33994;50.998;5.864;2023-04-27T02:33:38;101465.66;;;5.16;72.26
48204;BME280;33994;50.998;5.864;2023-04-27T02:36:41;101457.09;;;5.20;72.53
48204;BME280;33994;50.998;5.864;2023-04-27T02:39:46;101466.50;;;5.15;72.46
48204;BME280;33994;50.998;5.864;2023-04-27T02:42:49;101460.41;;;5.13;72.86
48204;BME280;33994;50.998;5.864;2023-04-27T02:45:52;101452.63;;;5.11;72.82
48204;BME280;33994;50.998;5.864;2023-04-27T02:48:55;101456.88;;;5.07;72.93
48204;BME280;33994;50.998;5.864;2023-04-27T02:51:58;101450.56;;;4.93;73.12
48204;BME280;33994;50.998;5.864;2023-04-27T02:55:04;101457.22;;;4.82;73.63
48204;BME280;33994;50.998;5.864;2023-04-27T02:58:07;101459.69;;;4.76;74.05
48204;BME280;33994;50.998;5.864;2023-04-27T03:01:10;101465.66;;;4.70;74.07
48204;BME280;33994;50.998;5.864;2023-04-27T03:04:13;101463.13;;;4.73;74.08
48204;BME280;33994;50.998;5.864;2023-04-27T03:07:16;101461.34;;;4.72;73.88
48204;BME280;33994;50.998;5.864;2023-04-27T03:10:20;101460.41;;;4.67;74.07
48204;BME280;33994;50.998;5.864;2023-04-27T03:13:23;101457.72;;;4.61;74.16
48204;BME280;33994;50.998;5.864;2023-04-27T03:16:26;101449.97;;;4.62;74.04
48204;BME280;33994;50.998;5.864;2023-04-27T03:19:30;101450.81;;;4.61;74.12
48204;BME280;33994;50.998;5.864;2023-04-27T03:22:33;101451.59;;;4.57;74.22
48204;BME280;33994;50.998;5.864;2023-04-27T03:25:37;101461.06;;;4.57;74.38
48204;BME280;33994;50.998;5.864;2023-04-27T03:28:41;101459.25;;;4.51;74.55
48204;BME280;33994;50.998;5.864;2023-04-27T03:31:44;101458.28;;;4.46;74.51
48204;BME280;33994;50.998;5.864;2023-04-27T03:34:47;101455.66;;;4.45;74.88
48204;BME280;33994;50.998;5.864;2023-04-27T03:37:50;101455.50;;;4.37;74.97
48204;BME280;33994;50.998;5.864;2023-04-27T03:40:55;101453.81;;;4.39;75.14
48204;BME280;33994;50.998;5.864;2023-04-27T03:43:58;101463.31;;;4.40;75.02
48204;BME280;33994;50.998;5.864;2023-04-27T03:47:01;101452.13;;;4.41;74.96
48204;BME280;33994;50.998;5.864;2023-04-27T03:50:05;101460.72;;;4.40;75.02
48204;BME280;33994;50.998;5.864;2023-04-27T03:53:09;101466.72;;;4.37;75.14
48204;BME280;33994;50.998;5.864;2023-04-27T03:56:14;101473.59;;;4.35;75.23
48204;BME280;33994;50.998;5.864;2023-04-27T03:59:18;101481.31;;;4.34;75.32
48204;BME280;33994;50.998;5.864;2023-04-27T04:02:21;101483.91;;;4.34;75.28
48204;BME280;33994;50.998;5.864;2023-04-27T04:05:24;101484.75;;;4.33;75.37
48204;BME280;33994;50.998;5.864;2023-04-27T04:08:27;101487.34;;;4.33;75.15
48204;BME280;33994;50.998;5.864;2023-04-27T04:11:32;101492.50;;;4.31;75.35
48204;BME280;33994;50.998;5.864;2023-04-27T04:14:35;101491.63;;;4.31;75.42
48204;BME280;33994;50.998;5.864;2023-04-27T04:17:38;101491.63;;;4.31;75.32
48204;BME280;33994;50.998;5.864;2023-04-27T04:20:59;101483.78;;;4.28;75.50
48204;BME280;33994;50.998;5.864;2023-04-27T04:24:03;101490.72;;;4.29;75.27
48204;BME280;33994;50.998;5.864;2023-04-27T04:27:07;101488.13;;;4.29;75.36
48204;BME280;33994;50.998;5.864;2023-04-27T04:30:11;101487.25;;;4.27;75.37
48204;BME280;33994;50.998;5.864;2023-04-27T04:33:14;101494.16;;;4.28;75.46
48204;BME280;33994;50.998;5.864;2023-04-27T04:36:18;101493.22;;;4.26;75.43
48204;BME280;33994;50.998;5.864;2023-04-27T04:39:21;101492.28;;;4.22;75.55
48204;BME280;33994;50.998;5.864;2023-04-27T04:42:25;101489.69;;;4.21;75.69
48204;BME280;33994;50.998;5.864;2023-04-27T04:45:28;101496.59;;;4.22;75.91
48204;BME280;33994;50.998;5.864;2023-04-27T04:48:31;101494.84;;;4.21;76.03
48204;BME280;33994;50.998;5.864;2023-04-27T04:51:40;101493.19;;;4.23;76.15
48204;BME280;33994;50.998;5.864;2023-04-27T04:54:44;101496.66;;;4.23;75.86
48204;BME280;33994;50.998;5.864;2023-04-27T04:57:48;101496.69;;;4.26;76.08
48204;BME280;33994;50.998;5.864;2023-04-27T05:00:51;101502.00;;;4.32;75.85
48204;BME280;33994;50.998;5.864;2023-04-27T05:03:54;101508.13;;;4.36;75.87
48204;BME280;33994;50.998;5.864;2023-04-27T05:06:58;101510.97;;;4.91;75.13
48204;BME280;33994;50.998;5.864;2023-04-27T05:10:01;101514.56;;;5.44;72.70
48204;BME280;33994;50.998;5.864;2023-04-27T05:13:05;101516.84;;;5.79;71.58
48204;BME280;33994;50.998;5.864;2023-04-27T05:16:09;101518.50;;;6.31;70.30
48204;BME280;33994;50.998;5.864;2023-04-27T05:19:12;101522.56;;;6.79;68.69
48204;BME280;33994;50.998;5.864;2023-04-27T05:22:15;101518.50;;;7.04;67.23
48204;BME280;33994;50.998;5.864;2023-04-27T05:25:18;101513.25;;;6.98;66.71
48204;BME280;33994;50.998;5.864;2023-04-27T05:28:23;101521.38;;;6.53;67.63
48204;BME280;33994;50.998;5.864;2023-04-27T05:31:26;101530.28;;;6.09;69.03
48204;BME280;33994;50.998;5.864;2023-04-27T05:34:29;101533.41;;;5.84;69.95
48204;BME280;33994;50.998;5.864;2023-04-27T05:37:32;101539.44;;;5.84;70.31
48204;BME280;33994;50.998;5.864;2023-04-27T05:40:35;101538.63;;;5.87;70.33
48204;BME280;33994;50.998;5.864;2023-04-27T05:43:40;101539.56;;;5.92;70.16
48204;BME280;33994;50.998;5.864;2023-04-27T05:46:43;101539.69;;;5.98;70.08
48204;BME280;33994;50.998;5.864;2023-04-27T05:49:49;101541.53;;;6.07;69.52
48204;BME280;33994;50.998;5.864;2023-04-27T05:52:52;101545.22;;;6.24;68.96
48204;BME280;33994;50.998;5.864;2023-04-27T05:55:55;101538.50;;;6.39;68.69
48204;BME280;33994;50.998;5.864;2023-04-27T05:58:59;101544.81;;;6.56;68.05
48204;BME280;33994;50.998;5.864;2023-04-27T06:02:02;101541.47;;;6.66;68.04
48204;BME280;33994;50.998;5.864;2023-04-27T06:05:06;101537.31;;;6.79;67.36
48204;BME280;33994;50.998;5.864;2023-04-27T06:08:09;101539.13;;;6.89;67.21
48204;BME280;33994;50.998;5.864;2023-04-27T06:11:13;101529.78;;;7.05;66.77
48204;BME280;33994;50.998;5.864;2023-04-27T06:14:17;101536.03;;;7.22;66.84
48204;BME280;33994;50.998;5.864;2023-04-27T06:17:21;101529.31;;;7.41;66.05
48204;BME280;33994;50.998;5.864;2023-04-27T06:20:23;101532.06;;;7.58;65.46
48204;BME280;33994;50.998;5.864;2023-04-27T06:23:27;101533.88;;;7.68;65.43
48204;BME280;33994;50.998;5.864;2023-04-27T06:26:30;101524.47;;;7.84;64.51
48204;BME280;33994;50.998;5.864;2023-04-27T06:29:34;101524.56;;;7.99;63.96
48204;BME280;33994;50.998;5.864;2023-04-27T06:32:37;101528.09;;;8.05;63.76
48204;BME280;33994;50.998;5.864;2023-04-27T06:35:40;101520.31;;;8.14;63.62
48204;BME280;33994;50.998;5.864;2023-04-27T06:38:44;101532.56;;;8.24;63.33
48204;BME280;33994;50.998;5.864;2023-04-27T06:41:47;101520.47;;;8.37;63.34
48204;BME280;33994;50.998;5.864;2023-04-27T06:44:54;101524.84;;;8.48;63.02
48204;BME280;33994;50.998;5.864;2023-04-27T06:47:57;101529.22;;;8.52;63.10
48204;BME280;33994;50.998;5.864;2023-04-27T06:51:00;101532.72;;;8.55;63.01
48204;BME280;33994;50.998;5.864;2023-04-27T06:54:03;101529.28;;;8.62;63.12
48204;BME280;33994;50.998;5.864;2023-04-27T06:57:07;101524.13;;;8.82;62.82
48204;BME280;33994;50.998;5.864;2023-04-27T07:00:13;101532.91;;;9.00;61.13
48204;BME280;33994;50.998;5.864;2023-04-27T07:03:16;101530.28;;;9.10;60.46
48204;BME280;33994;50.998;5.864;2023-04-27T07:06:19;101532.94;;;9.16;60.06
48204;BME280;33994;50.998;5.864;2023-04-27T07:09:22;101534.66;;;9.21;59.34
48204;BME280;33994;50.998;5.864;2023-04-27T07:12:25;101529.50;;;9.31;58.59
48204;BME280;33994;50.998;5.864;2023-04-27T07:15:30;101521.66;;;9.26;58.29
48204;BME280;33994;50.998;5.864;2023-04-27T07:18:33;101523.44;;;9.35;58.49
48204;BME280;33994;50.998;5.864;2023-04-27T07:21:36;101528.63;;;9.33;58.54
48204;BME280;33994;50.998;5.864;2023-04-27T07:24:39;101524.28;;;9.40;58.49
48204;BME280;33994;50.998;5.864;2023-04-27T07:27:42;101536.50;;;9.52;58.31
48204;BME280;33994;50.998;5.864;2023-04-27T07:30:47;101535.63;;;9.59;58.21
48204;BME280;33994;50.998;5.864;2023-04-27T07:33:50;101526.91;;;9.64;57.71
48204;BME280;33994;50.998;5.864;2023-04-27T07:36:53;101526.06;;;9.68;57.52
48204;BME280;33994;50.998;5.864;2023-04-27T07:39:56;101533.00;;;9.74;57.16
48204;BME280;33994;50.998;5.864;2023-04-27T07:43:00;101533.03;;;9.80;57.31
48204;BME280;33994;50.998;5.864;2023-04-27T07:46:04;101521.66;;;9.87;56.95
48204;BME280;33994;50.998;5.864;2023-04-27T07:49:07;101534.75;;;10.00;56.88
48204;BME280;33994;50.998;5.864;2023-04-27T07:52:10;101522.53;;;10.02;55.96
48204;BME280;33994;50.998;5.864;2023-04-27T07:55:14;101526.88;;;10.09;55.49
48204;BME280;33994;50.998;5.864;2023-04-27T07:58:17;101521.69;;;10.00;54.93
48204;BME280;33994;50.998;5.864;2023-04-27T08:01:21;101526.03;;;9.90;54.07
48204;BME280;33994;50.998;5.864;2023-04-27T08:04:24;101518.19;;;9.87;54.18
48204;BME280;33994;50.998;5.864;2023-04-27T08:07:27;101521.69;;;9.83;54.24
48204;BME280;33994;50.998;5.864;2023-04-27T08:10:31;101512.09;;;9.79;53.45
48204;BME280;33994;50.998;5.864;2023-04-27T08:13:34;101522.56;;;9.79;54.33
48204;BME280;33994;50.998;5.864;2023-04-27T08:16:39;101507.75;;;9.82;54.66
48204;BME280;33994;50.998;5.864;2023-04-27T08:19:42;101518.19;;;9.93;54.78
48204;BME280;33994;50.998;5.864;2023-04-27T08:22:45;101513.84;;;9.90;54.26
48204;BME280;33994;50.998;5.864;2023-04-27T08:25:48;101519.94;;;9.95;52.76
48204;BME280;33994;50.998;5.864;2023-04-27T08:28:51;101512.09;;;9.86;51.98
48204;BME280;33994;50.998;5.864;2023-04-27T08:31:58;101506.00;;;9.81;52.10
48204;BME280;33994;50.998;5.864;2023-04-27T08:35:01;101511.25;;;9.81;52.68
48204;BME280;33994;50.998;5.864;2023-04-27T08:38:04;101507.75;;;9.78;53.39
48204;BME280;33994;50.998;5.864;2023-04-27T08:41:08;101499.91;;;9.79;52.77
48204;BME280;33994;50.998;5.864;2023-04-27T08:44:11;101501.66;;;9.88;53.66
48204;BME280;33994;50.998;5.864;2023-04-27T08:47:15;101502.50;;;10.01;53.96
48204;BME280;33994;50.998;5.864;2023-04-27T08:50:18;101491.16;;;9.98;53.11
48204;BME280;33994;50.998;5.864;2023-04-27T08:53:22;101485.09;;;9.92;52.34
48204;BME280;33994;50.998;5.864;2023-04-27T08:56:26;101488.59;;;9.92;52.01
48204;BME280;33994;50.998;5.864;2023-04-27T08:59:30;101481.59;;;9.94;52.33
48204;BME280;33994;50.998;5.864;2023-04-27T09:02:34;101487.69;;;9.95;53.34
48204;BME280;33994;50.998;5.864;2023-04-27T09:05:45;101497.28;;;9.94;50.90
48204;BME280;33994;50.998;5.864;2023-04-27T09:08:49;101486.84;;;9.91;51.43
48204;BME280;33994;50.998;5.864;2023-04-27T09:11:52;101488.59;;;9.86;51.27
48204;BME280;33994;50.998;5.864;2023-04-27T09:14:56;101479.00;;;9.85;50.77
48204;BME280;33994;50.998;5.864;2023-04-27T09:18:01;101472.06;;;9.84;50.37
48204;BME280;33994;50.998;5.864;2023-04-27T09:21:04;101465.94;;;9.85;50.54
48204;BME280;33994;50.998;5.864;2023-04-27T09:24:11;101476.38;;;9.94;50.49
48204;BME280;33994;50.998;5.864;2023-04-27T09:27:18;101485.94;;;10.02;49.94
48204;BME280;33994;50.998;5.864;2023-04-27T09:30:22;101481.59;;;10.07;50.02
48204;BME280;33994;50.998;5.864;2023-04-27T09:33:28;101485.06;;;10.15;50.06
48204;BME280;33994;50.998;5.864;2023-04-27T09:36:32;101483.28;;;10.14;49.99
48204;BME280;33994;50.998;5.864;2023-04-27T09:39:35;101482.44;;;10.19;49.10
48204;BME280;33994;50.998;5.864;2023-04-27T09:42:40;101479.81;;;10.22;49.00
48204;BME280;33994;50.998;5.864;2023-04-27T09:45:43;101484.16;;;10.30;47.99
48204;BME280;33994;50.998;5.864;2023-04-27T09:48:49;101473.66;;;10.33;47.88
48204;BME280;33994;50.998;5.864;2023-04-27T09:51:54;101472.78;;;10.35;47.46
48204;BME280;33994;50.998;5.864;2023-04-27T09:54:58;101467.53;;;10.37;48.12
48204;BME280;33994;50.998;5.864;2023-04-27T09:58:12;101466.69;;;10.38;47.56
48204;BME280;33994;50.998;5.864;2023-04-27T10:01:25;101465.75;;;10.50;47.88
48204;BME280;33994;50.998;5.864;2023-04-27T10:04:44;101460.53;;;10.50;47.30
48204;BME280;33994;50.998;5.864;2023-04-27T10:07:51;101456.09;;;10.59;46.62
48204;BME280;33994;50.998;5.864;2023-04-27T10:10:54;101452.59;;;10.63;45.88
48204;BME280;33994;50.998;5.864;2023-04-27T10:13:57;101449.13;;;10.63;46.55
48204;BME280;33994;50.998;5.864;2023-04-27T10:17:09;101454.34;;;10.66;46.28
48204;BME280;33994;50.998;5.864;2023-04-27T10:20:14;101441.22;;;10.72;45.47
48204;BME280;33994;50.998;5.864;2023-04-27T10:23:22;101436.84;;;10.71;45.63
48204;BME280;33994;50.998;5.864;2023-04-27T10:26:26;101434.22;;;10.74;46.09
48204;BME280;33994;50.998;5.864;2023-04-27T10:29:34;101437.72;;;10.79;46.19
48204;BME280;33994;50.998;5.864;2023-04-27T10:32:48;101446.41;;;10.87;45.94
48204;BME280;33994;50.998;5.864;2023-04-27T10:35:57;101435.06;;;10.88;45.62
48204;BME280;33994;50.998;5.864;2023-04-27T10:39:00;101437.59;;;10.98;46.36
48204;BME280;33994;50.998;5.864;2023-04-27T10:42:04;101441.09;;;11.00;45.62
48204;BME280;33994;50.998;5.864;2023-04-27T10:45:09;101447.19;;;11.00;45.50
48204;BME280;33994;50.998;5.864;2023-04-27T10:48:13;101446.28;;;11.06;45.50
48204;BME280;33994;50.998;5.864;2023-04-27T10:51:17;101442.78;;;11.07;45.44
48204;BME280;33994;50.998;5.864;2023-04-27T10:54:25;101443.63;;;11.13;45.56
48204;BME280;33994;50.998;5.864;2023-04-27T10:57:28;101428.78;;;11.14;45.86
48204;BME280;33994;50.998;5.864;2023-04-27T11:00:32;101427.84;;;11.16;45.68
48204;BME280;33994;50.998;5.864;2023-04-27T11:03:35;101408.66;;;11.16;46.08
48204;BME280;33994;50.998;5.864;2023-04-27T11:06:43;101411.22;;;11.24;45.74
48204;BME280;33994;50.998;5.864;2023-04-27T11:09:47;101399.00;;;11.24;45.91
48204;BME280;33994;50.998;5.864;2023-04-27T11:12:51;101392.84;;;11.30;46.13
48204;BME280;33994;50.998;5.864;2023-04-27T11:15:54;101392.75;;;11.39;46.08
48204;BME280;33994;50.998;5.864;2023-04-27T11:19:03;101402.34;;;11.41;45.27
48204;BME280;33994;50.998;5.864;2023-04-27T11:22:07;101387.53;;;11.40;45.77
48204;BME280;33994;50.998;5.864;2023-04-27T11:25:11;101397.09;;;11.44;45.61
48204;BME280;33994;50.998;5.864;2023-04-27T11:28:17;101389.19;;;11.46;45.01
48204;BME280;33994;50.998;5.864;2023-04-27T11:31:21;101390.03;;;11.53;45.13
48204;BME280;33994;50.998;5.864;2023-04-27T11:34:24;101385.63;;;11.56;44.72
48204;BME280;33994;50.998;5.864;2023-04-27T11:37:28;101379.50;;;11.57;44.63
48204;BME280;33994;50.998;5.864;2023-04-27T11:40:32;101375.13;;;11.58;44.89
48204;BME280;33994;50.998;5.864;2023-04-27T11:43:36;101372.53;;;11.56;45.42
48204;BME280;33994;50.998;5.864;2023-04-27T11:46:43;101375.97;;;11.60;45.17
48204;BME280;33994;50.998;5.864;2023-04-27T11:49:47;101378.59;;;11.58;45.37
48204;BME280;33994;50.998;5.864;2023-04-27T11:52:52;101379.44;;;11.62;45.38
48204;BME280;33994;50.998;5.864;2023-04-27T11:55:55;101373.28;;;11.66;45.13
48204;BME280;33994;50.998;5.864;2023-04-27T11:58:58;101365.41;;;11.66;45.32
48204;BME280;33994;50.998;5.864;2023-04-27T12:02:02;101368.03;;;11.66;45.64
48204;BME280;33994;50.998;5.864;2023-04-27T12:05:06;101369.00;;;11.57;45.86
48204;BME280;33994;50.998;5.864;2023-04-27T12:08:11;101366.44;;;11.51;45.46
48204;BME280;33994;50.998;5.864;2023-04-27T12:11:14;101361.25;;;11.47;45.42
48204;BME280;33994;50.998;5.864;2023-04-27T12:14:29;101361.25;;;11.47;45.69
48204;BME280;33994;50.998;5.864;2023-04-27T12:17:32;101365.59;;;11.48;45.77
48204;BME280;33994;50.998;5.864;2023-04-27T12:20:35;101365.66;;;11.44;45.51
48204;BME280;33994;50.998;5.864;2023-04-27T12:23:39;101360.44;;;11.41;45.53
48204;BME280;33994;50.998;5.864;2023-04-27T12:26:42;101359.41;;;11.56;46.19
48204;BME280;33994;50.998;5.864;2023-04-27T12:29:46;101355.81;;;11.65;45.19
48204;BME280;33994;50.998;5.864;2023-04-27T12:32:49;101349.69;;;11.66;44.75
48204;BME280;33994;50.998;5.864;2023-04-27T12:35:52;101354.16;;;11.59;44.22
48204;BME280;33994;50.998;5.864;2023-04-27T12:38:59;101357.66;;;11.55;43.72
48204;BME280;33994;50.998;5.864;2023-04-27T12:42:02;101355.06;;;11.54;43.46
48204;BME280;33994;50.998;5.864;2023-04-27T12:45:07;101352.47;;;11.52;43.86
48204;BME280;33994;50.998;5.864;2023-04-27T12:48:28;101340.22;;;11.54;43.77
48204;BME280;33994;50.998;5.864;2023-04-27T12:51:31;101339.31;;;11.60;43.91
48204;BME280;33994;50.998;5.864;2023-04-27T12:54:38;101338.38;;;11.64;44.11
48204;BME280;33994;50.998;5.864;2023-04-27T12:57:42;101328.72;;;11.69;44.00
48204;BME280;33994;50.998;5.864;2023-04-27T13:00:45;101337.44;;;11.71;43.95
48204;BME280;33994;50.998;5.864;2023-04-27T13:03:48;101320.88;;;11.66;43.98
48204;BME280;33994;50.998;5.864;2023-04-27T13:06:54;101322.63;;;11.67;44.08
48204;BME280;33994;50.998;5.864;2023-04-27T13:09:59;101332.19;;;11.71;43.76
48204;BME280;33994;50.998;5.864;2023-04-27T13:13:02;101324.25;;;11.77;44.19
48204;BME280;33994;50.998;5.864;2023-04-27T13:16:06;101326.78;;;11.83;44.28
48204;BME280;33994;50.998;5.864;2023-04-27T13:19:09;101324.13;;;11.88;44.12
48204;BME280;33994;50.998;5.864;2023-04-27T13:22:19;101323.22;;;11.90;44.02
48204;BME280;33994;50.998;5.864;2023-04-27T13:25:27;101317.16;;;11.87;43.45
48204;BME280;33994;50.998;5.864;2023-04-27T13:28:31;101312.75;;;11.87;43.45
48204;BME280;33994;50.998;5.864;2023-04-27T13:31:34;101305.81;;;11.86;43.54
48204;BME280;33994;50.998;5.864;2023-04-27T13:34:37;101302.31;;;11.84;43.60
48204;BME280;33994;50.998;5.864;2023-04-27T13:37:47;101304.88;;;11.89;43.85
48204;BME280;33994;50.998;5.864;2023-04-27T13:40:52;101299.59;;;11.93;43.75
48204;BME280;33994;50.998;5.864;2023-04-27T13:43:55;101294.31;;;11.95;43.83
48204;BME280;33994;50.998;5.864;2023-04-27T13:46:59;101289.91;;;11.99;44.18
48204;BME280;33994;50.998;5.864;2023-04-27T13:50:04;101284.56;;;12.05;44.36
48204;BME280;33994;50.998;5.864;2023-04-27T13:53:08;101288.03;;;12.07;44.41
48204;BME280;33994;50.998;5.864;2023-04-27T13:56:12;101284.50;;;12.11;44.08
48204;BME280;33994;50.998;5.864;2023-04-27T13:59:15;101275.72;;;12.12;43.95
48204;BME280;33994;50.998;5.864;2023-04-27T14:02:18;101265.16;;;12.18;44.12
48204;BME280;33994;50.998;5.864;2023-04-27T14:05:21;101260.75;;;12.22;44.06
48204;BME280;33994;50.998;5.864;2023-04-27T14:08:25;101258.97;;;12.25;43.86
48204;BME280;33994;50.998;5.864;2023-04-27T14:11:29;101257.13;;;12.30;44.01
48204;BME280;33994;50.998;5.864;2023-04-27T14:17:35;101250.72;;;12.50;44.19
48204;BME280;33994;50.998;5.864;2023-04-27T14:20:39;101232.25;;;12.54;44.25
48204;BME280;33994;50.998;5.864;2023-04-27T14:23:42;101234.88;;;12.56;44.29
48204;BME280;33994;50.998;5.864;2023-04-27T14:26:46;101223.44;;;12.60;44.10
48204;BME280;33994;50.998;5.864;2023-04-27T14:29:50;101222.50;;;12.64;43.73
48204;BME280;33994;50.998;5.864;2023-04-27T14:32:53;101228.59;;;12.66;44.10
48204;BME280;33994;50.998;5.864;2023-04-27T14:35:57;101221.50;;;12.70;44.10
48204;BME280;33994;50.998;5.864;2023-04-27T14:39:00;101220.59;;;12.74;44.22
48204;BME280;33994;50.998;5.864;2023-04-27T14:42:05;101210.06;;;12.75;43.78
48204;BME280;33994;50.998;5.864;2023-04-27T14:45:08;101202.13;;;12.78;43.89
48204;BME280;33994;50.998;5.864;2023-04-27T14:48:11;101189.78;;;12.83;44.08
48204;BME280;33994;50.998;5.864;2023-04-27T14:51:15;101183.56;;;12.87;43.96
48204;BME280;33994;50.998;5.864;2023-04-27T14:54:18;101190.53;;;12.88;43.86
48204;BME280;33994;50.998;5.864;2023-04-27T14:57:23;101190.59;;;12.87;43.91
48204;BME280;33994;50.998;5.864;2023-04-27T15:00:26;101198.47;;;12.87;43.94
48204;BME280;33994;50.998;5.864;2023-04-27T15:03:29;101193.25;;;12.85;44.00
48204;BME280;33994;50.998;5.864;2023-04-27T15:06:32;101195.03;;;12.83;44.13
48204;BME280;33994;50.998;5.864;2023-04-27T15:09:35;101194.25;;;12.78;44.08
48204;BME280;33994;50.998;5.864;2023-04-27T15:12:40;101190.88;;;12.72;43.94
48204;BME280;33994;50.998;5.864;2023-04-27T15:15:43;101187.34;;;12.74;44.00
48204;BME280;33994;50.998;5.864;2023-04-27T15:19:14;101196.84;;;12.80;43.86
48204;BME280;33994;50.998;5.864;2023-04-27T15:22:23;101195.88;;;12.85;44.19
48204;BME280;33994;50.998;5.864;2023-04-27T15:25:26;101191.44;;;12.87;44.17
48204;BME280;33994;50.998;5.864;2023-04-27T15:28:49;101193.16;;;12.90;44.45
48204;BME280;33994;50.998;5.864;2023-04-27T15:31:52;101195.75;;;12.93;44.39
48204;BME280;33994;50.998;5.864;2023-04-27T15:34:56;101190.50;;;12.93;44.39
48204;BME280;33994;50.998;5.864;2023-04-27T15:37:59;101182.63;;;12.93;44.28
48204;BME280;33994;50.998;5.864;2023-04-27T15:41:02;101186.03;;;12.97;44.40
48204;BME280;33994;50.998;5.864;2023-04-27T15:44:07;101177.31;;;12.95;44.22
48204;BME280;33994;50.998;5.864;2023-04-27T15:47:11;101176.41;;;12.97;44.28
48204;BME280;33994;50.998;5.864;2023-04-27T15:50:16;101177.28;;;12.96;43.76
48204;BME280;33994;50.998;5.864;2023-04-27T15:53:22;101179.09;;;12.94;43.63
48204;BME280;33994;50.998;5.864;2023-04-27T15:56:29;101179.09;;;12.94;43.76
48204;BME280;33994;50.998;5.864;2023-04-27T15:59:33;101164.25;;;12.92;43.91
48204;BME280;33994;50.998;5.864;2023-04-27T16:02:36;101155.47;;;12.93;43.77
48204;BME280;33994;50.998;5.864;2023-04-27T16:05:40;101161.66;;;12.90;43.59
48204;BME280;33994;50.998;5.864;2023-04-27T16:08:43;101152.03;;;12.90;43.58
48204;BME280;33994;50.998;5.864;2023-04-27T16:11:46;101147.63;;;12.91;43.83